Time;durP1;ratioP1;P1;durP2;ratioP2;P2;SDS_P1;SDS_P2;PMS_P1;PMS_P2;Temp;Humidity;BMP_temperature;BMP_pressure;BME280_temperature;BME280_humidity;BME280_pressure;Samples;Min_cycle;Max_cycle;Signal;HPM_P1;HPM_P2
2022/06/02 00:00:10;;;;;;;0.00;0.00;;;8.70;99.90;;;;;;5023401;28;20096;-74
2022/06/02 00:02:54;;;;;;;0.00;0.00;;;8.60;99.90;;;;;;5023150;28;20053;-75
2022/06/02 00:05:57;;;;;;;0.00;0.00;;;8.50;99.90;;;;;;5023878;28;20063;-75
2022/06/02 00:09:00;;;;;;;0.00;0.00;;;8.50;99.90;;;;;;5021753;28;20500;-75
2022/06/02 00:11:44;;;;;;;0.00;0.00;;;8.40;99.90;;;;;;5021595;28;20067;-75
2022/06/02 00:14:17;;;;;;;0.00;0.00;;;8.50;99.90;;;;;;5024080;28;20076;-75
2022/06/02 00:17:13;;;;;;;0.00;0.00;;;8.50;99.90;;;;;;5023693;28;20033;-75
2022/06/02 00:20:05;;;;;;;0.00;0.00;;;8.50;99.90;;;;;;5022368;28;20704;-75
2022/06/02 00:22:56;;;;;;;0.00;0.00;;;8.50;99.90;;;;;;5018836;28;20661;-75
2022/06/02 00:25:37;;;;;;;0.00;0.00;;;8.50;99.90;;;;;;5023013;28;20389;-75
2022/06/02 00:28:31;;;;;;;0.00;0.00;;;8.50;99.90;;;;;;5023585;28;20128;-72
2022/06/02 00:31:11;;;;;;;0.00;0.00;;;8.50;99.90;;;;;;5023735;28;20063;-75
2022/06/02 00:34:24;;;;;;;0.00;0.00;;;8.50;99.90;;;;;;5022790;28;20397;-75
2022/06/02 00:37:16;;;;;;;0.00;0.00;;;8.50;99.90;;;;;;5014261;28;20053;-75
2022/06/02 00:39:42;;;;;;;0.00;0.00;;;8.40;99.90;;;;;;5022813;28;20050;-72
2022/06/02 00:42:23;;;;;;;0.10;0.10;;;8.40;99.90;;;;;;5023250;28;20048;-75
2022/06/02 00:45:04;;;;;;;0.00;0.00;;;8.40;99.90;;;;;;5025710;28;20037;-75
2022/06/02 00:47:56;;;;;;;0.00;0.00;;;8.30;99.90;;;;;;5031019;28;20053;-73
2022/06/02 00:50:49;;;;;;;0.10;0.10;;;8.40;99.90;;;;;;5022873;28;20125;-75
2022/06/02 00:53:33;;;;;;;0.00;0.00;;;8.30;99.90;;;;;;5022919;28;20052;-73
2022/06/02 00:59:20;;;;;;;0.00;0.00;;;8.20;99.90;;;;;;5022917;28;20048;-74
2022/06/02 01:01:46;;;;;;;0.00;0.00;;;8.20;99.90;;;;;;5022036;28;20056;-62
2022/06/02 01:04:16;;;;;;;0.00;0.00;;;8.20;99.90;;;;;;5022085;28;20057;-75
2022/06/02 01:06:47;;;;;;;0.00;0.00;;;8.20;99.90;;;;;;5023239;28;20054;-64
2022/06/02 01:09:21;;;;;;;0.00;0.00;;;8.10;99.90;;;;;;5022638;28;20080;-75
2022/06/02 01:12:12;;;;;;;0.00;0.00;;;8.00;99.90;;;;;;4996421;22;20563;-74
2022/06/02 01:15:00;;;;;;;0.00;0.00;;;8.10;99.90;;;;;;4981630;28;20064;-75
2022/06/02 01:18:06;;;;;;;0.00;0.00;;;8.00;99.90;;;;;;4995881;28;20069;-75
2022/06/02 01:20:51;;;;;;;;;;;7.90;99.90;;;;;;5003192;28;20069;-72
2022/06/02 01:23:21;;;;;;;0.00;0.00;;;7.90;99.90;;;;;;5003027;28;19922;-75
2022/06/02 01:26:38;;;;;;;0.00;0.00;;;7.80;99.90;;;;;;5003081;28;20821;-75
2022/06/02 01:29:31;;;;;;;0.00;0.00;;;7.80;99.90;;;;;;4979657;28;20057;-75
2022/06/02 01:32:03;;;;;;;0.00;0.00;;;7.80;99.90;;;;;;5003229;28;20053;-76
2022/06/02 01:34:41;;;;;;;0.00;0.00;;;7.80;99.90;;;;;;5001830;28;20647;-77
2022/06/02 01:37:12;;;;;;;0.00;0.00;;;7.80;99.90;;;;;;5003041;28;20050;-76
2022/06/02 01:40:03;;;;;;;0.00;0.00;;;7.80;99.90;;;;;;5002547;28;20045;-76
2022/06/02 01:42:56;;;;;;;0.00;0.00;;;7.80;99.90;;;;;;5002463;28;20591;-76
2022/06/02 01:45:22;;;;;;;0.00;0.00;;;7.90;99.90;;;;;;4985080;28;20403;-75
2022/06/02 01:48:01;;;;;;;0.00;0.00;;;7.80;99.90;;;;;;4969114;28;20080;-76
2022/06/02 01:50:26;;;;;;;0.00;0.00;;;7.80;99.90;;;;;;4962969;28;20051;-75
2022/06/02 01:53:04;;;;;;;0.00;0.00;;;7.90;99.90;;;;;;4962735;28;20445;-75
2022/06/02 01:55:41;;;;;;;0.00;0.00;;;7.90;99.90;;;;;;4963296;28;20054;-75
2022/06/02 01:58:46;;;;;;;0.00;0.00;;;7.90;99.90;;;;;;4962756;28;20070;-74
2022/06/02 02:01:32;;;;;;;0.00;0.00;;;7.80;99.90;;;;;;4942346;28;20046;-75
2022/06/02 02:04:19;;;;;;;0.00;0.00;;;7.70;99.90;;;;;;4962890;28;20411;-74
2022/06/02 02:07:02;;;;;;;0.00;0.00;;;7.80;99.90;;;;;;4963097;28;20047;-74
2022/06/02 02:09:50;;;;;;;0.00;0.00;;;7.70;99.90;;;;;;4963039;28;20050;-74
2022/06/02 02:12:50;;;;;;;0.00;0.00;;;7.70;99.90;;;;;;4943971;28;20063;-75
2022/06/02 02:15:41;;;;;;;0.00;0.00;;;7.60;99.90;;;;;;4943291;28;20190;-74
2022/06/02 02:18:36;;;;;;;0.10;0.10;;;7.60;99.90;;;;;;4949644;28;20059;-74
2022/06/02 02:21:14;;;;;;;0.00;0.00;;;7.60;99.90;;;;;;4939459;29;20067;-73
2022/06/02 02:24:02;;;;;;;0.00;0.00;;;7.60;99.90;;;;;;4942957;28;20093;-74
2022/06/02 02:27:19;;;;;;;0.00;0.00;;;7.60;99.90;;;;;;4943809;28;20050;-74
2022/06/02 02:30:11;;;;;;;0.60;0.50;;;7.60;99.90;;;;;;4917768;29;20059;-74
2022/06/02 02:33:13;;;;;;;0.00;0.00;;;7.70;99.90;;;;;;4942881;28;20086;-75
2022/06/02 02:36:01;;;;;;;0.00;0.00;;;7.60;99.90;;;;;;4935747;28;20056;-74
2022/06/02 02:39:17;;;;;;;0.00;0.00;;;7.60;99.90;;;;;;4943468;28;20043;-74
2022/06/02 02:41:46;;;;;;;0.00;0.00;;;7.60;99.90;;;;;;4902847;29;20530;-74
2022/06/02 02:44:22;;;;;;;0.00;0.00;;;7.60;99.90;;;;;;4940857;28;20089;-75
2022/06/02 02:47:11;;;;;;;0.00;0.00;;;7.50;99.90;;;;;;4952667;28;20051;-74
2022/06/02 02:49:47;;;;;;;0.00;0.00;;;7.50;99.90;;;;;;4954594;28;20100;-75
2022/06/02 02:52:43;;;;;;;0.00;0.00;;;7.50;99.90;;;;;;4962986;28;20055;-74
2022/06/02 02:55:27;;;;;;;0.00;0.00;;;7.50;99.90;;;;;;4962881;28;20035;-75
2022/06/02 02:58:17;;;;;;;0.00;0.00;;;7.50;99.90;;;;;;4962028;28;20035;-75
2022/06/02 03:01:00;;;;;;;0.00;0.00;;;7.40;99.90;;;;;;4962637;28;20043;-74
2022/06/02 03:03:33;;;;;;;0.25;0.10;;;7.50;99.90;;;;;;4966622;28;20085;-74
2022/06/02 03:06:11;;;;;;;0.00;0.00;;;7.40;99.90;;;;;;4968862;28;20050;-74
2022/06/02 03:08:51;;;;;;;0.00;0.00;;;7.40;99.90;;;;;;4968022;28;20046;-75
2022/06/02 03:11:47;;;;;;;0.00;0.00;;;7.50;99.90;;;;;;4981201;28;20054;-76
2022/06/02 03:14:15;;;;;;;0.00;0.00;;;7.50;99.90;;;;;;4987673;28;20088;-75
2022/06/02 03:16:42;;;;;;;0.00;0.00;;;7.50;99.90;;;;;;4988672;28;20125;-74
2022/06/02 03:19:30;;;;;;;0.00;0.00;;;7.50;99.90;;;;;;4986898;28;20042;-75
2022/06/02 03:22:36;;;;;;;0.03;0.03;;;7.50;99.90;;;;;;4988306;28;20496;-74
2022/06/02 03:25:14;;;;;;;0.32;0.13;;;7.50;99.90;;;;;;4967075;28;20115;-74
2022/06/02 03:28:06;;;;;;;0.00;0.00;;;7.50;99.90;;;;;;4986236;28;20128;-73
2022/06/02 03:30:40;;;;;;;0.10;0.10;;;7.50;99.90;;;;;;4988159;28;20070;-74
2022/06/02 03:33:27;;;;;;;0.00;0.00;;;7.50;99.90;;;;;;5001759;28;20142;-75
2022/06/02 03:36:02;;;;;;;0.00;0.00;;;7.50;99.90;;;;;;4987831;28;20113;-74
2022/06/02 03:39:08;;;;;;;0.00;0.00;;;7.50;99.90;;;;;;4987593;28;20046;-74
2022/06/02 03:42:15;;;;;;;0.00;0.00;;;7.50;99.90;;;;;;4987067;28;20129;-74
2022/06/02 03:44:54;;;;;;;0.00;0.00;;;7.60;99.90;;;;;;4924132;29;20144;-65
2022/06/02 03:47:59;;;;;;;0.00;0.00;;;7.60;99.90;;;;;;4915400;29;20052;-74
2022/06/02 03:50:32;;;;;;;0.00;0.00;;;7.60;99.90;;;;;;4957176;28;20567;-74
2022/06/02 03:53:23;;;;;;;0.20;0.20;;;7.60;99.90;;;;;;4968554;28;20074;-74
2022/06/02 03:55:58;;;;;;;0.00;0.00;;;7.60;99.90;;;;;;4967072;28;20050;-74
2022/06/02 03:58:23;;;;;;;;;;;7.60;99.90;;;;;;4968558;28;20486;-74
2022/06/02 04:00:54;;;;;;;0.10;0.10;;;7.60;99.90;;;;;;4967430;28;19938;-74
2022/06/02 04:03:45;;;;;;;0.00;0.00;;;7.70;99.90;;;;;;4967817;28;20101;-74
2022/06/02 04:06:21;;;;;;;0.03;0.00;;;7.70;99.90;;;;;;4968005;28;20086;-74
2022/06/02 04:08:55;;;;;;;0.00;0.00;;;7.70;99.90;;;;;;4968390;28;20437;-73
2022/06/02 04:14:49;;;;;;;0.00;0.00;;;7.80;99.90;;;;;;4964844;28;20058;-75
2022/06/02 04:17:34;;;;;;;0.00;0.00;;;7.80;99.90;;;;;;4964845;28;20062;-74
2022/06/02 04:20:34;;;;;;;0.00;0.00;;;7.90;99.90;;;;;;4955819;28;20042;-74
2022/06/02 04:23:11;;;;;;;0.00;0.00;;;8.00;99.90;;;;;;4965038;28;20446;-75
2022/06/02 04:25:45;;;;;;;0.00;0.00;;;8.00;99.90;;;;;;4965083;28;20147;-74
2022/06/02 04:28:27;;;;;;;0.00;0.00;;;8.10;99.90;;;;;;4965308;28;20055;-74
2022/06/02 04:31:31;;;;;;;0.00;0.00;;;8.10;99.90;;;;;;4964924;28;20042;-74
2022/06/02 04:34:22;;;;;;;0.00;0.00;;;8.20;99.90;;;;;;4963973;28;20074;-71
2022/06/02 04:37:06;;;;;;;0.00;0.00;;;8.20;99.90;;;;;;4964747;28;20055;-75
2022/06/02 04:39:51;;;;;;;0.00;0.00;;;8.30;99.90;;;;;;4964423;28;20097;-73
2022/06/02 04:43:11;;;;;;;0.00;0.00;;;8.40;99.90;;;;;;4964025;28;20043;-74
2022/06/02 04:45:55;;;;;;;0.00;0.00;;;8.50;99.90;;;;;;4947981;28;20051;-73
2022/06/02 04:48:21;;;;;;;0.00;0.00;;;8.90;99.90;;;;;;4963852;28;20142;-74
2022/06/02 04:51:11;;;;;;;0.00;0.00;;;9.30;99.90;;;;;;4964431;28;20420;-74
2022/06/02 04:53:42;;;;;;;1.17;0.00;;;9.70;99.90;;;;;;4964531;28;20047;-75
2022/06/02 04:56:36;;;;;;;0.00;0.00;;;10.20;99.90;;;;;;4964126;28;20428;-74
2022/06/02 04:59:12;;;;;;;0.10;0.10;;;10.70;99.90;;;;;;4964473;28;20068;-74
2022/06/02 05:01:51;;;;;;;0.00;0.00;;;11.10;99.90;;;;;;4963543;28;20070;-65
2022/06/02 05:04:43;;;;;;;0.00;0.00;;;11.50;99.90;;;;;;4964465;28;20054;-73
2022/06/02 05:07:27;;;;;;;0.00;0.00;;;11.70;99.90;;;;;;4964506;28;20047;-75
2022/06/02 05:10:07;;;;;;;0.00;0.00;;;11.90;99.90;;;;;;4964022;28;20129;-74
2022/06/02 05:12:44;;;;;;;0.00;0.00;;;12.10;99.90;;;;;;4964295;28;20055;-74
2022/06/02 05:15:59;;;;;;;0.00;0.00;;;12.20;99.90;;;;;;4964456;28;20137;-74
2022/06/02 05:18:59;;;;;;;0.20;0.20;;;12.30;99.90;;;;;;4957088;28;20058;-74
2022/06/02 05:21:49;;;;;;;0.10;0.10;;;12.50;99.90;;;;;;4963886;28;20062;-74
2022/06/02 05:24:45;;;;;;;0.00;0.00;;;12.40;99.90;;;;;;4964438;28;20047;-74
2022/06/02 05:27:20;;;;;;;0.00;0.00;;;12.40;99.90;;;;;;4962938;28;20085;-74
2022/06/02 05:30:30;;;;;;;0.00;0.00;;;12.60;99.90;;;;;;4964014;28;20526;-68
2022/06/02 05:33:24;;;;;;;0.00;0.00;;;12.60;99.90;;;;;;4940827;29;20043;-75
2022/06/02 05:36:23;;;;;;;0.00;0.00;;;12.80;99.90;;;;;;4963256;28;20061;-75
2022/06/02 05:39:26;;;;;;;0.08;0.08;;;13.10;99.90;;;;;;4963302;28;20058;-76
2022/06/02 05:41:57;;;;;;;0.00;0.00;;;13.30;99.90;;;;;;4963691;28;20042;-75
2022/06/02 05:44:29;;;;;;;0.00;0.00;;;13.60;99.90;;;;;;4964275;28;20046;-75
2022/06/02 05:47:15;;;;;;;0.00;0.00;;;13.90;99.90;;;;;;4971996;28;20137;-74
2022/06/02 05:50:06;;;;;;;0.10;0.10;;;13.90;99.90;;;;;;4963466;28;20414;-75
2022/06/02 05:52:57;;;;;;;0.57;0.20;;;13.70;99.90;;;;;;4963357;28;20140;-75
2022/06/02 05:55:30;;;;;;;0.00;0.00;;;13.60;99.90;;;;;;4963309;28;20053;-74
2022/06/02 05:58:17;;;;;;;0.00;0.00;;;13.70;99.90;;;;;;4963360;28;20126;-75
2022/06/02 06:00:54;;;;;;;0.00;0.00;;;13.90;99.90;;;;;;4963596;28;20561;-75
2022/06/02 06:04:05;;;;;;;0.00;0.00;;;14.10;99.90;;;;;;4962217;28;20053;-75
2022/06/02 06:06:35;;;;;;;0.40;0.13;;;14.10;99.90;;;;;;4953806;28;20492;-75
2022/06/02 06:09:09;;;;;;;0.05;0.05;;;14.00;99.90;;;;;;4963173;28;20093;-75
2022/06/02 06:11:59;;;;;;;0.00;0.00;;;14.10;99.90;;;;;;4962736;28;20070;-75
2022/06/02 06:14:50;;;;;;;0.10;0.00;;;14.40;99.90;;;;;;4962913;28;20121;-75
2022/06/02 06:17:27;;;;;;;0.00;0.00;;;14.60;99.90;;;;;;4961897;28;20078;-75
2022/06/02 06:20:16;;;;;;;0.00;0.00;;;14.70;99.90;;;;;;4962665;28;20085;-74
2022/06/02 06:22:54;;;;;;;0.00;0.00;;;14.60;99.90;;;;;;4962746;28;20122;-74
2022/06/02 06:25:29;;;;;;;0.00;0.00;;;15.00;99.90;;;;;;4962916;28;20051;-74
2022/06/02 06:28:05;;;;;;;0.00;0.00;;;15.50;99.90;;;;;;4962642;28;20405;-75
2022/06/02 06:31:01;;;;;;;0.00;0.00;;;15.40;99.90;;;;;;4961596;28;20051;-74
2022/06/02 06:33:35;;;;;;;0.00;0.00;;;15.70;99.90;;;;;;4961781;28;20494;-74
2022/06/02 06:36:25;;;;;;;0.00;0.00;;;15.30;99.90;;;;;;4961399;28;20053;-74
2022/06/02 06:38:51;;;;;;;0.00;0.00;;;15.50;99.90;;;;;;4962457;28;20047;-74
2022/06/02 06:41:51;;;;;;;0.00;0.00;;;15.60;99.90;;;;;;4962163;28;20096;-73
2022/06/02 06:44:32;;;;;;;0.00;0.00;;;15.70;99.90;;;;;;4962855;28;20117;-74
2022/06/02 06:47:18;;;;;;;0.00;0.00;;;15.10;99.90;;;;;;4971017;28;20142;-73
2022/06/02 06:50:05;;;;;;;0.00;0.00;;;14.70;99.90;;;;;;4982286;28;20417;-73
2022/06/02 06:53:01;;;;;;;0.00;0.00;;;14.60;99.90;;;;;;4981179;28;20512;-74
2022/06/02 06:55:57;;;;;;;0.00;0.00;;;15.10;99.90;;;;;;4981723;28;20141;-73
2022/06/02 06:58:34;;;;;;;0.00;0.00;;;15.50;99.90;;;;;;4981877;28;20133;-73
2022/06/02 07:01:34;;;;;;;0.00;0.00;;;15.80;99.90;;;;;;4981261;28;20401;-74
2022/06/02 07:04:24;;;;;;;0.00;0.00;;;15.50;99.90;;;;;;4982093;28;20113;-74
2022/06/02 07:07:07;;;;;;;0.00;0.00;;;15.40;99.90;;;;;;4981806;28;20118;-73
2022/06/02 07:09:58;;;;;;;0.00;0.00;;;15.30;99.90;;;;;;4980927;28;20047;-73
2022/06/02 07:12:52;;;;;;;0.20;0.20;;;15.40;99.90;;;;;;4981794;28;20046;-73
2022/06/02 07:15:47;;;;;;;0.00;0.00;;;15.50;99.90;;;;;;4981494;28;20054;-72
2022/06/02 07:18:13;;;;;;;;;;;15.50;99.90;;;;;;4981528;28;20426;-70
2022/06/02 07:20:59;;;;;;;0.00;0.00;;;15.80;99.90;;;;;;4981436;28;19926;-73
2022/06/02 07:23:40;;;;;;;0.00;0.00;;;14.90;99.90;;;;;;4982042;28;20535;-73
2022/06/02 07:26:30;;;;;;;0.00;0.00;;;14.80;99.90;;;;;;4981640;28;20104;-73
2022/06/02 07:29:33;;;;;;;0.00;0.00;;;15.10;99.90;;;;;;4981552;28;20064;-72
2022/06/02 07:32:21;;;;;;;0.00;0.00;;;15.10;99.90;;;;;;4980265;28;20042;-73
2022/06/02 07:35:13;;;;;;;0.00;0.00;;;15.10;99.90;;;;;;4981612;28;20047;-72
2022/06/02 07:38:13;;;;;;;0.00;0.00;;;14.60;99.90;;;;;;4981610;28;20102;-72
2022/06/02 07:41:06;;;;;;;0.00;0.00;;;14.40;99.90;;;;;;4981308;28;20547;-72
2022/06/02 07:43:41;;;;;;;0.00;0.00;;;14.80;99.90;;;;;;4981174;28;20133;-72
2022/06/02 07:46:06;;;;;;;;;;;14.70;99.90;;;;;;4975480;28;20445;-72
2022/06/02 07:49:08;;;;;;;0.00;0.00;;;14.80;99.90;;;;;;4961584;28;19964;-72
2022/06/02 07:51:41;;;;;;;0.00;0.00;;;14.70;99.90;;;;;;4956940;28;20140;-72
2022/06/02 07:54:34;;;;;;;0.00;0.00;;;14.80;99.90;;;;;;4965656;28;20039;-73
2022/06/02 07:57:19;;;;;;;0.00;0.00;;;15.30;99.90;;;;;;4965814;28;20055;-72
2022/06/02 08:00:03;;;;;;;0.00;0.00;;;15.20;99.90;;;;;;4965143;28;20082;-72
2022/06/02 08:02:56;;;;;;;0.00;0.00;;;15.60;99.90;;;;;;4965175;28;20130;-72
2022/06/02 08:05:31;;;;;;;0.20;0.10;;;16.10;99.90;;;;;;4965248;28;20133;-72
2022/06/02 08:08:29;;;;;;;0.00;0.00;;;16.20;99.90;;;;;;4965651;28;20189;-73
2022/06/02 08:11:28;;;;;;;0.00;0.00;;;15.90;99.90;;;;;;4955705;28;20127;-75
2022/06/02 08:14:08;;;;;;;0.00;0.00;;;16.00;99.90;;;;;;4965125;28;20050;-72
2022/06/02 08:17:01;;;;;;;0.00;0.00;;;16.10;99.90;;;;;;4964267;28;20043;-73
2022/06/02 08:19:41;;;;;;;0.00;0.00;;;16.20;99.90;;;;;;4964768;28;20138;-73
2022/06/02 08:22:12;;;;;;;0.00;0.00;;;15.90;99.90;;;;;;4964781;28;20139;-73
2022/06/02 08:25:01;;;;;;;0.00;0.00;;;15.80;99.90;;;;;;4965188;28;20053;-72
2022/06/02 08:28:08;;;;;;;0.00;0.00;;;15.30;99.90;;;;;;4964374;28;20070;-72
2022/06/02 08:31:18;;;;;;;0.25;0.25;;;15.30;99.90;;;;;;4963873;28;20050;-72
2022/06/02 08:34:03;;;;;;;0.00;0.00;;;15.20;99.90;;;;;;4942178;29;20058;-72
2022/06/02 08:36:32;;;;;;;;;;;15.10;99.90;;;;;;4943020;29;20058;-72
2022/06/02 08:39:22;;;;;;;0.00;0.00;;;15.20;99.90;;;;;;4955898;28;19922;-71
2022/06/02 08:42:07;;;;;;;0.00;0.00;;;15.00;99.90;;;;;;4964549;28;20105;-72
2022/06/02 08:44:57;;;;;;;0.00;0.00;;;15.10;99.90;;;;;;4964833;28;20057;-71
2022/06/02 08:47:53;;;;;;;0.00;0.00;;;15.50;99.90;;;;;;4972215;28;20154;-70
2022/06/02 08:50:18;;;;;;;;;;;16.00;99.90;;;;;;4979641;28;20114;-72
2022/06/02 08:53:30;;;;;;;0.00;0.00;;;16.20;99.90;;;;;;4969408;28;20017;-72
2022/06/02 08:56:23;;;;;;;0.00;0.00;;;16.30;99.90;;;;;;4981214;28;20038;-71
2022/06/02 08:59:07;;;;;;;0.00;0.00;;;16.10;99.90;;;;;;4964254;28;20421;-71
2022/06/02 09:01:57;;;;;;;0.00;0.00;;;15.90;99.90;;;;;;4962985;28;20783;-73
2022/06/02 09:04:32;;;;;;;0.00;0.00;;;15.90;99.90;;;;;;4978854;28;20297;-73
2022/06/02 09:07:31;;;;;;;0.00;0.00;;;16.10;99.90;;;;;;4963923;28;20055;-72
2022/06/02 09:10:34;;;;;;;0.00;0.00;;;15.80;99.90;;;;;;4963855;28;20413;-72
2022/06/02 09:13:29;;;;;;;0.00;0.00;;;15.90;99.90;;;;;;4964222;28;20579;-72
2022/06/02 09:16:22;;;;;;;0.00;0.00;;;15.90;99.90;;;;;;4963168;28;20050;-71
2022/06/02 09:19:25;;;;;;;0.00;0.00;;;16.30;99.90;;;;;;4978886;28;20050;-73
2022/06/02 09:22:09;;;;;;;0.00;0.00;;;16.20;99.90;;;;;;4963276;28;20047;-72
2022/06/02 09:25:13;;;;;;;0.03;0.03;;;16.30;99.90;;;;;;4964039;28;20532;-73
2022/06/02 09:27:57;;;;;;;0.00;0.00;;;16.50;99.90;;;;;;4963774;28;20585;-73
2022/06/02 09:30:56;;;;;;;0.00;0.00;;;16.60;99.90;;;;;;4963158;28;20038;-73
2022/06/02 09:33:46;;;;;;;0.03;0.03;;;17.30;99.90;;;;;;4978551;28;20075;-74
2022/06/02 09:36:39;;;;;;;0.00;0.00;;;17.40;99.90;;;;;;4963960;28;20050;-73
2022/06/02 09:39:32;;;;;;;0.00;0.00;;;17.00;99.90;;;;;;4963660;28;20085;-71
2022/06/02 09:42:08;;;;;;;0.00;0.00;;;16.80;99.90;;;;;;4963022;28;20105;-72
2022/06/02 09:45:11;;;;;;;0.00;0.00;;;17.00;99.90;;;;;;4965799;28;20039;-71
2022/06/02 09:47:57;;;;;;;0.00;0.00;;;17.20;99.90;;;;;;4970333;28;20050;-72
2022/06/02 09:50:33;;;;;;;0.00;0.00;;;17.60;99.90;;;;;;4962701;28;20046;-71
2022/06/02 09:53:11;;;;;;;0.00;0.00;;;17.90;99.90;;;;;;4974083;28;20038;-71
2022/06/02 09:56:00;;;;;;;0.00;0.00;;;17.30;99.90;;;;;;4982245;28;20046;-72
2022/06/02 09:58:36;;;;;;;0.00;0.00;;;17.40;99.90;;;;;;4968283;28;20103;-72
2022/06/02 10:01:12;;;;;;;0.00;0.00;;;17.30;99.90;;;;;;4981444;28;20050;-73
2022/06/02 10:03:38;;;;;;;0.00;0.00;;;17.40;99.90;;;;;;4982214;28;20048;-73
2022/06/02 10:06:34;;;;;;;0.00;0.00;;;17.10;99.90;;;;;;4982480;28;20708;-75
2022/06/02 10:09:37;;;;;;;0.00;0.00;;;17.30;99.90;;;;;;4982465;28;20057;-67
2022/06/02 10:15:17;;;;;;;0.00;0.00;;;18.30;99.90;;;;;;4982550;28;20050;-68
2022/06/02 10:17:57;;;;;;;0.00;0.00;;;18.40;99.90;;;;;;4982014;28;20297;-69
2022/06/02 10:20:42;;;;;;;0.00;0.00;;;18.70;99.90;;;;;;4981699;28;20046;-71
2022/06/02 10:23:34;;;;;;;0.00;0.00;;;18.50;99.90;;;;;;4982366;28;20460;-62
2022/06/02 10:26:15;;;;;;;0.00;0.00;;;18.30;99.90;;;;;;4981764;28;20453;-62
2022/06/02 10:29:22;;;;;;;0.00;0.00;;;18.50;99.90;;;;;;4981941;28;20420;-61
2022/06/02 10:32:07;;;;;;;0.00;0.00;;;19.10;99.90;;;;;;4979900;28;20066;-62
2022/06/02 10:35:10;;;;;;;0.00;0.00;;;19.50;99.90;;;;;;4980473;28;20082;-62
2022/06/02 10:37:47;;;;;;;0.00;0.00;;;19.20;99.90;;;;;;4981288;28;20054;-61
2022/06/02 10:40:18;;;;;;;0.00;0.00;;;18.70;99.90;;;;;;4982121;28;20034;-62
2022/06/02 10:43:06;;;;;;;0.00;0.00;;;18.90;99.90;;;;;;4981974;28;20077;-62
2022/06/02 10:45:58;;;;;;;0.00;0.00;;;19.10;99.90;;;;;;4975368;28;20137;-62
2022/06/02 10:49:02;;;;;;;0.00;0.00;;;19.30;99.90;;;;;;4963658;28;20035;-62
2022/06/02 10:51:43;;;;;;;0.00;0.00;;;19.60;99.90;;;;;;4961489;28;20047;-63
2022/06/02 10:54:40;;;;;;;0.00;0.00;;;19.60;99.90;;;;;;4962475;28;20054;-63
2022/06/02 10:57:45;;;;;;;0.00;0.00;;;19.90;99.90;;;;;;4962158;28;20047;-62
2022/06/02 11:00:47;;;;;;;0.00;0.00;;;19.00;99.90;;;;;;4962438;28;20082;-63
2022/06/02 11:03:31;;;;;;;0.00;0.00;;;18.50;99.90;;;;;;4962030;28;20148;-62
2022/06/02 11:06:31;;;;;;;0.00;0.00;;;18.00;99.90;;;;;;4962142;28;20057;-62
2022/06/02 11:09:14;;;;;;;0.00;0.00;;;18.00;99.90;;;;;;4962322;28;20490;-63
2022/06/02 11:12:21;;;;;;;0.00;0.00;;;17.90;99.90;;;;;;4961203;28;20062;-63
2022/06/02 11:15:14;;;;;;;0.00;0.00;;;18.50;99.90;;;;;;4958231;28;20043;-63
2022/06/02 11:18:02;;;;;;;0.00;0.00;;;18.90;99.90;;;;;;4960920;28;20047;-63
2022/06/02 11:20:31;;;;;;;0.00;0.00;;;19.30;99.90;;;;;;4961300;28;20051;-62
2022/06/02 11:23:05;;;;;;;0.00;0.00;;;19.90;99.90;;;;;;4962233;28;20051;-63
2022/06/02 11:25:44;;;;;;;;;;;19.80;99.90;;;;;;4965837;28;20046;-61
2022/06/02 11:28:37;;;;;;;0.85;0.15;;;19.60;99.90;;;;;;4965966;28;19929;-63
2022/06/02 11:31:40;;;;;;;0.00;0.00;;;18.90;99.90;;;;;;4964774;28;20050;-62
2022/06/02 11:34:30;;;;;;;0.00;0.00;;;18.90;99.90;;;;;;4965177;28;20093;-62
2022/06/02 11:37:05;;;;;;;0.00;0.00;;;19.00;99.90;;;;;;4965948;28;20054;-63
2022/06/02 11:39:55;;;;;;;0.00;0.00;;;19.40;99.90;;;;;;4965488;28;20507;-63
2022/06/02 11:42:39;;;;;;;0.00;0.00;;;20.10;99.90;;;;;;4965352;28;20050;-63
2022/06/02 11:45:25;;;;;;;0.00;0.00;;;19.80;99.90;;;;;;4968253;28;20039;-62
2022/06/02 11:48:16;;;;;;;0.00;0.00;;;20.20;99.90;;;;;;4992659;28;20065;-63
2022/06/02 11:50:59;;;;;;;0.00;0.00;;;20.00;99.90;;;;;;4985235;28;20042;-61
2022/06/02 11:53:46;;;;;;;0.00;0.00;;;19.70;99.90;;;;;;4984665;28;20076;-63
2022/06/02 11:56:30;;;;;;;0.00;0.00;;;19.50;99.90;;;;;;4983722;28;20051;-62
2022/06/02 11:59:27;;;;;;;0.00;0.00;;;19.00;99.90;;;;;;4984963;28;20089;-62
2022/06/02 12:02:07;;;;;;;0.00;0.00;;;19.00;99.90;;;;;;4983787;28;20050;-63
2022/06/02 12:04:50;;;;;;;0.00;0.00;;;19.40;99.90;;;;;;4984531;28;20049;-63
2022/06/02 12:07:37;;;;;;;0.00;0.00;;;20.10;99.90;;;;;;4984772;28;20073;-62
2022/06/02 12:10:26;;;;;;;0.00;0.00;;;20.70;99.90;;;;;;4998828;28;20046;-62
2022/06/02 12:13:21;;;;;;;0.00;0.00;;;20.40;99.90;;;;;;4984378;28;20167;-63
2022/06/02 12:15:55;;;;;;;0.00;0.00;;;20.00;99.90;;;;;;4952859;28;20104;-63
2022/06/02 12:18:53;;;;;;;0.00;0.00;;;19.90;99.90;;;;;;4982659;28;20145;-62
2022/06/02 12:21:27;;;;;;;0.00;0.00;;;19.90;99.90;;;;;;4984129;28;20126;-62
2022/06/02 12:24:12;;;;;;;0.00;0.00;;;19.70;99.90;;;;;;4984063;28;20066;-63
2022/06/02 12:26:59;;;;;;;0.00;0.00;;;19.40;99.90;;;;;;4982832;28;20058;-63
2022/06/02 12:29:31;;;;;;;0.00;0.00;;;19.20;99.90;;;;;;4983070;28;20061;-63
2022/06/02 12:32:46;;;;;;;0.00;0.00;;;18.70;99.90;;;;;;4983567;28;20405;-63
2022/06/02 12:35:20;;;;;;;0.00;0.00;;;19.50;99.90;;;;;;4983873;28;20120;-62
2022/06/02 12:38:06;;;;;;;0.00;0.00;;;19.80;99.90;;;;;;4983093;28;20058;-62
2022/06/02 12:41:11;;;;;;;0.00;0.00;;;20.00;99.90;;;;;;4983338;28;20544;-63
2022/06/02 12:43:58;;;;;;;0.33;0.20;;;19.70;99.90;;;;;;4984078;28;20484;-63
2022/06/02 12:46:47;;;;;;;0.00;0.00;;;19.90;99.90;;;;;;4974520;28;20125;-63
2022/06/02 12:49:25;;;;;;;0.00;0.00;;;20.30;99.90;;;;;;4964582;28;20047;-63
2022/06/02 12:51:50;;;;;;;0.00;0.00;;;20.10;99.90;;;;;;4963840;28;20078;-64
2022/06/02 12:54:54;;;;;;;0.00;0.00;;;20.00;99.90;;;;;;4964099;28;20070;-62
2022/06/02 12:57:35;;;;;;;0.00;0.00;;;19.40;99.90;;;;;;4962554;28;20058;-63
2022/06/02 13:00:23;;;;;;;0.00;0.00;;;19.50;99.90;;;;;;4964076;28;20047;-63
2022/06/02 13:03:11;;;;;;;0.00;0.00;;;19.60;99.90;;;;;;4964189;28;20043;-62
2022/06/02 13:06:25;;;;;;;0.00;0.00;;;20.20;99.90;;;;;;4964145;28;20038;-62
2022/06/02 13:09:13;;;;;;;0.00;0.00;;;20.20;99.90;;;;;;4958654;28;20086;-62
2022/06/02 13:12:01;;;;;;;0.00;0.00;;;19.90;99.90;;;;;;4967129;28;20170;-62
2022/06/02 13:14:55;;;;;;;0.00;0.00;;;20.00;99.90;;;;;;4970101;28;20046;-62
2022/06/02 13:17:52;;;;;;;0.00;0.00;;;20.30;99.90;;;;;;4967338;28;20073;-63
2022/06/02 13:20:56;;;;;;;0.00;0.00;;;20.60;99.90;;;;;;4970049;28;20141;-63
2022/06/02 13:23:59;;;;;;;0.30;0.20;;;21.00;99.90;;;;;;4946353;28;20050;-62
2022/06/02 13:26:48;;;;;;;0.00;0.00;;;21.00;99.90;;;;;;4884369;29;20047;-62
2022/06/02 13:29:33;;;;;;;0.00;0.00;;;20.70;99.90;;;;;;4934138;28;20519;-63
2022/06/02 13:32:17;;;;;;;;;;;20.60;99.90;;;;;;4958330;28;20054;-63
2022/06/02 13:34:54;;;;;;;0.00;0.00;;;20.20;99.90;;;;;;4969362;28;19996;-61
2022/06/02 13:37:38;;;;;;;0.00;0.00;;;20.60;99.90;;;;;;4969566;28;20126;-63
2022/06/02 13:40:26;;;;;;;0.00;0.00;;;20.70;99.90;;;;;;4969651;28;20026;-64
2022/06/02 13:43:07;;;;;;;0.00;0.00;;;20.10;99.90;;;;;;4969159;28;20120;-62
2022/06/02 13:45:51;;;;;;;0.00;0.00;;;20.10;99.90;;;;;;4968585;28;20141;-62
2022/06/02 13:48:37;;;;;;;0.10;0.10;;;20.30;99.90;;;;;;4968085;28;20038;-63
2022/06/02 13:51:22;;;;;;;0.00;0.00;;;20.20;99.90;;;;;;4969525;28;20054;-63
2022/06/02 13:57:38;;;;;;;0.00;0.00;;;20.10;99.90;;;;;;4969737;28;20058;-62
2022/06/02 14:00:20;;;;;;;0.00;0.00;;;20.40;99.90;;;;;;4969271;28;20133;-62
2022/06/02 14:03:04;;;;;;;0.00;0.00;;;20.60;99.90;;;;;;4969901;28;20049;-61
2022/06/02 14:05:39;;;;;;;0.00;0.00;;;20.50;99.90;;;;;;4968983;28;20049;-62
2022/06/02 14:08:23;;;;;;;0.00;0.00;;;20.30;99.90;;;;;;4969198;28;20285;-64
2022/06/02 14:11:01;;;;;;;0.00;0.00;;;20.30;99.90;;;;;;4967387;28;20145;-62
2022/06/02 14:13:36;;;;;;;0.00;0.00;;;20.60;99.90;;;;;;4969159;28;20594;-62
2022/06/02 14:16:24;;;;;;;0.20;0.17;;;20.60;99.90;;;;;;4968820;28;20043;-63
2022/06/02 14:19:22;;;;;;;0.00;0.00;;;20.70;99.90;;;;;;4967425;28;20500;-61
2022/06/02 14:21:57;;;;;;;0.00;0.00;;;20.60;99.90;;;;;;4945323;28;20733;-62
2022/06/02 14:24:54;;;;;;;0.00;0.00;;;20.40;99.90;;;;;;4968322;28;20047;-62
2022/06/02 14:27:37;;;;;;;0.00;0.00;;;20.30;99.90;;;;;;4968608;28;20043;-62
2022/06/02 14:30:13;;;;;;;0.00;0.00;;;20.30;99.90;;;;;;4968754;28;20051;-62
2022/06/02 14:32:42;;;;;;;0.00;0.00;;;20.30;99.90;;;;;;4975516;28;20039;-63
2022/06/02 14:35:26;;;;;;;0.00;0.00;;;20.50;99.90;;;;;;4968713;28;20084;-52
2022/06/02 14:38:15;;;;;;;0.00;0.00;;;20.40;99.90;;;;;;4968903;28;20039;-62
2022/06/02 14:40:49;;;;;;;0.00;0.00;;;20.90;99.90;;;;;;4969225;28;20046;-59
2022/06/02 14:43:33;;;;;;;0.00;0.00;;;21.10;99.90;;;;;;4969355;28;20673;-60
2022/06/02 14:46:23;;;;;;;0.00;0.00;;;21.20;99.90;;;;;;4966885;28;20062;-58